Terminal Aerodrome Forecast
Issued by NWS

Home | Current Version | Previous Version | Text Only | Print | Product List | Glossary On
Versions: 1 2 3 4 5 6 7 8 9 10 11 12
000
FTUS45 KABQ 312342
TAFGUP
TAF
KGUP 312342Z 0100/0124 35011KT P6SM VCSH BKN100
     FM010300 13006KT P6SM BKN120
     FM010900 VRB05KT P6SM SCT120
     FM011900 30009KT P6SM VCSH BKN110=

USA.gov is the U.S. government's official web portal to all federal, state and local government web resources and services.